Time;durP1;ratioP1;P1;durP2;ratioP2;P2;SDS_P1;SDS_P2;PMS_P1;PMS_P2;Temp;Humidity;BMP_temperature;BMP_pressure;BME280_temperature;BME280_humidity;BME280_pressure;Samples;Min_cycle;Max_cycle;Signal;HPM_P1;HPM_P2
2022/07/30 00:02:24;;;;;;;14.13;8.65;;;;;;;16.11;83.67;101772.13;6125834;23;20012;-78
2022/07/30 00:04:49;;;;;;;17.35;8.65;;;;;;;16.22;84.04;101804.31;6125371;23;20009;-78
2022/07/30 00:07:15;;;;;;;13.75;7.43;;;;;;;16.05;84.00;101791.63;6125194;23;20010;-72
2022/07/30 00:09:40;;;;;;;18.02;9.00;;;;;;;15.96;84.87;101779.25;6125411;23;20021;-74
2022/07/30 00:12:06;;;;;;;14.15;8.70;;;;;;;16.09;84.87;101794.84;6125631;23;20006;-73
2022/07/30 00:14:31;;;;;;;16.50;9.50;;;;;;;16.09;85.08;101803.50;6125555;23;20010;-75
2022/07/30 00:16:57;;;;;;;17.52;9.50;;;;;;;15.96;85.85;101784.47;6122054;23;20018;-74
2022/07/30 00:19:22;;;;;;;20.58;9.77;;;;;;;16.08;86.44;101801.00;6125579;23;20397;-75
2022/07/30 00:21:47;;;;;;;17.33;10.10;;;;;;;16.05;86.28;101791.63;6125939;23;20106;-74
2022/07/30 00:24:13;;;;;;;17.25;10.80;;;;;;;15.99;86.88;101790.28;6125462;23;20040;-74
2022/07/30 00:26:38;;;;;;;19.02;10.40;;;;;;;15.91;86.51;101792.59;6125621;23;20312;-77
2022/07/30 00:29:05;;;;;;;18.92;10.73;;;;;;;15.83;87.02;101791.47;6125486;23;20050;-78
2022/07/30 00:31:30;;;;;;;19.85;11.10;;;;;;;15.84;88.25;101795.75;6113634;23;20337;-79
2022/07/30 00:33:55;;;;;;;20.65;11.40;;;;;;;15.75;87.63;101779.81;6125357;23;20002;-81
2022/07/30 00:36:21;;;;;;;21.83;12.60;;;;;;;15.78;89.02;101789.19;6125446;23;20048;-76
2022/07/30 00:38:47;;;;;;;18.70;11.52;;;;;;;15.72;88.76;101787.00;6125452;23;20424;-78
2022/07/30 00:41:12;;;;;;;32.65;11.80;;;;;;;15.64;88.35;101792.75;6125386;23;20384;-80
2022/07/30 00:43:38;;;;;;;20.17;11.95;;;;;;;15.62;88.80;101791.16;6125345;23;20002;-79
2022/07/30 00:46:03;;;;;;;17.17;10.80;;;;;;;15.56;88.17;101792.41;6125651;23;20006;-80
2022/07/30 00:48:28;;;;;;;18.33;11.02;;;;;;;15.49;88.31;101797.19;6125842;23;20436;-80
2022/07/30 00:50:53;;;;;;;22.85;12.50;;;;;;;15.45;89.04;101800.13;6125176;23;20380;-80
2022/07/30 00:53:19;;;;;;;22.98;13.00;;;;;;;15.43;90.46;101796.78;6125483;23;20332;-80
2022/07/30 00:55:44;;;;;;;23.38;13.13;;;;;;;15.44;90.43;101796.69;6125270;23;20030;-75
2022/07/30 00:58:09;;;;;;;20.30;12.32;;;;;;;15.33;90.56;101778.34;6125605;23;20006;-80
2022/07/30 01:00:35;;;;;;;20.17;13.15;;;;;;;15.31;90.39;101780.22;6125876;23;20030;-75
2022/07/30 01:03:00;;;;;;;22.83;13.35;;;;;;;15.31;90.95;101784.59;6125337;23;20072;-79
2022/07/30 01:05:25;;;;;;;20.08;13.73;;;;;;;15.27;91.76;101781.38;6125655;23;20041;-78
2022/07/30 01:07:51;;;;;;;23.02;14.30;;;;;;;15.33;92.55;101793.13;6125584;23;20401;-77
2022/07/30 01:10:16;;;;;;;20.58;15.30;;;;;;;15.30;92.77;101796.78;6125363;23;20475;-75
2022/07/30 01:12:43;;;;;;;25.23;14.93;;;;;;;15.21;92.54;101773.97;6125111;23;20364;-79
2022/07/30 01:15:09;;;;;;;23.17;14.93;;;;;;;15.21;92.43;101772.22;6125582;23;20002;-76
2022/07/30 01:17:35;;;;;;;27.10;15.82;;;;;;;15.07;92.69;101759.31;6127274;23;20022;-78
2022/07/30 01:20:10;;;;;;;22.95;14.55;;;;;;;15.17;92.33;101781.16;6127019;23;20042;-78
2022/07/30 01:23:00;;;;;;;21.23;13.82;;;;;;;15.13;91.76;101771.88;6127292;23;20021;-79
2022/07/30 01:25:50;;;;;;;21.17;13.80;;;;;;;15.08;91.85;101778.34;6126965;23;20424;-78
2022/07/30 01:28:20;;;;;;;20.38;13.88;;;;;;;15.02;91.93;101773.53;6127477;23;20026;-79
2022/07/30 01:30:47;;;;;;;22.10;14.05;;;;;;;14.99;92.26;101781.56;6126936;23;20077;-78
2022/07/30 01:33:15;;;;;;;24.08;13.90;;;;;;;14.85;92.33;101766.88;6126630;23;20006;-79
2022/07/30 01:35:43;;;;;;;20.05;14.25;;;;;;;14.83;92.24;101782.56;6127259;23;20081;-78
2022/07/30 01:38:11;;;;;;;23.80;14.25;;;;;;;14.80;92.95;101769.75;6127250;23;20002;-74
2022/07/30 01:40:38;;;;;;;23.48;14.55;;;;;;;14.84;92.67;101772.97;6126800;23;20002;-74
2022/07/30 01:43:06;;;;;;;22.55;15.00;;;;;;;14.82;93.15;101777.47;6127358;23;20106;-74
2022/07/30 01:45:33;;;;;;;20.17;14.50;;;;;;;14.75;92.98;101771.84;6115385;23;20040;-74
2022/07/30 01:48:01;;;;;;;20.90;14.95;;;;;;;14.76;93.17;101778.72;6127100;23;20126;-73
2022/07/30 01:50:27;;;;;;;24.50;15.98;;;;;;;14.78;94.02;101778.59;6127153;23;20064;-73
2022/07/30 01:52:54;;;;;;;24.77;17.60;;;;;;;14.74;94.75;101785.75;6126706;23;20024;-74
2022/07/30 01:55:35;;;;;;;29.15;18.55;;;;;;;14.73;95.67;101775.47;6126634;23;20002;-74
2022/07/30 01:58:02;;;;;;;28.87;18.20;;;;;;;14.75;95.46;101791.78;6126991;23;20006;-74
2022/07/30 02:00:32;;;;;;;25.35;18.02;;;;;;;14.67;95.74;101788.88;6126609;23;20578;-73
2022/07/30 02:02:58;;;;;;;30.77;18.85;;;;;;;14.57;96.05;101773.88;6126926;23;20084;-73
2022/07/30 02:05:24;;;;;;;25.30;19.15;;;;;;;14.70;96.03;101788.66;6126637;23;20419;-72
2022/07/30 02:07:50;;;;;;;28.42;20.42;;;;;;;14.69;96.23;101793.03;6126715;23;20053;-73
2022/07/30 02:10:22;;;;;;;33.30;21.23;;;;;;;14.69;96.81;101793.03;6126467;23;20006;-73
2022/07/30 02:12:51;;;;;;;30.67;21.60;;;;;;;14.54;96.94;101768.84;6126828;23;20006;-74
2022/07/30 02:15:33;;;;;;;30.92;21.48;;;;;;;14.55;96.70;101774.88;6126533;23;20026;-75
2022/07/30 02:18:26;;;;;;;31.00;20.70;;;;;;;14.60;96.70;101791.84;6126501;23;20017;-75
2022/07/30 02:21:03;;;;;;;27.98;20.88;;;;;;;14.49;96.01;101790.88;6126697;23;20034;-73
2022/07/30 02:23:34;;;;;;;28.73;20.80;;;;;;;14.50;96.79;101795.16;6126624;23;20006;-74
2022/07/30 02:26:00;;;;;;;29.85;20.67;;;;;;;14.43;97.31;101792.06;6126539;23;20567;-75
2022/07/30 02:28:27;;;;;;;30.40;21.30;;;;;;;14.43;97.00;101783.44;6126458;23;20049;-74
2022/07/30 02:30:57;;;;;;;31.55;21.60;;;;;;;14.32;97.70;101768.53;6126300;23;20005;-74
2022/07/30 02:33:29;;;;;;;33.45;22.70;;;;;;;14.30;98.41;101765.22;6126562;23;20005;-73
2022/07/30 02:35:57;;;;;;;30.65;22.10;;;;;;;14.22;97.87;101765.69;6126417;23;20029;-73
2022/07/30 02:38:26;;;;;;;29.42;22.08;;;;;;;14.39;98.37;101793.22;6126947;23;20048;-74
2022/07/30 02:40:53;;;;;;;33.25;21.92;;;;;;;14.35;98.86;101784.78;6126362;23;20006;-74
2022/07/30 02:43:20;;;;;;;29.42;20.73;;;;;;;14.29;97.75;101792.97;6126410;23;20005;-75
2022/07/30 02:45:47;;;;;;;30.13;20.95;;;;;;;14.27;97.28;101794.81;6126349;23;20025;-73
2022/07/30 02:48:14;;;;;;;29.85;20.85;;;;;;;14.23;97.32;101800.28;6126700;23;20085;-73
2022/07/30 02:50:39;;;;;;;27.77;20.52;;;;;;;14.14;96.87;101791.31;6126381;23;20057;-76
2022/07/30 02:53:08;;;;;;;26.92;19.65;;;;;;;14.13;97.50;101789.63;6126823;23;20006;-77
2022/07/30 02:55:35;;;;;;;26.70;20.30;;;;;;;14.06;97.09;101798.78;6126099;23;20006;-76
2022/07/30 02:58:03;;;;;;;27.65;20.65;;;;;;;14.02;96.98;101798.09;6126195;23;20006;-78
2022/07/30 03:00:30;;;;;;;30.55;21.52;;;;;;;13.96;98.08;101785.50;6126273;23;20024;-80
2022/07/30 03:02:57;;;;;;;27.35;20.95;;;;;;;13.98;97.26;101788.84;6100579;23;20432;-79
2022/07/30 03:05:23;;;;;;;30.35;21.58;;;;;;;13.80;97.29;101766.59;6126598;23;20006;-78
2022/07/30 03:07:50;;;;;;;28.65;20.52;;;;;;;13.91;97.24;101789.31;6126506;23;20375;-81
2022/07/30 03:10:16;;;;;;;32.03;21.20;;;;;;;13.91;96.87;101800.53;6126101;23;20006;-80
2022/07/30 03:12:44;;;;;;;33.95;22.48;;;;;;;13.91;97.48;101810.09;6125571;23;20467;-78
2022/07/30 03:15:10;;;;;;;33.30;23.02;;;;;;;13.83;97.92;101802.75;6126147;23;20360;-77
2022/07/30 03:17:44;;;;;;;30.45;23.45;;;;;;;13.82;98.37;101803.69;6126064;23;20344;-80
2022/07/30 03:20:12;;;;;;;32.90;24.17;;;;;;;13.88;98.90;101802.50;6126325;23;20006;-80
2022/07/30 03:22:44;;;;;;;38.70;25.77;;;;;;;13.83;99.66;101794.97;6126203;23;20344;-79
2022/07/30 03:25:13;;;;;;;37.00;26.70;;;;;;;13.89;99.93;101806.75;6125995;23;20409;-78
2022/07/30 03:27:39;;;;;;;33.83;24.67;;;;;;;13.83;99.45;101805.34;6126017;23;20006;-79
2022/07/30 03:30:06;;;;;;;33.50;26.98;;;;;;;13.84;100.00;101799.22;6126015;23;20002;-79
2022/07/30 03:32:33;;;;;;;33.92;24.80;;;;;;;13.73;99.55;101781.72;6125797;23;20014;-76
2022/07/30 03:34:59;;;;;;;32.75;25.25;;;;;;;13.75;99.34;101800.63;6126212;23;20029;-79
2022/07/30 03:37:26;;;;;;;31.15;24.67;;;;;;;13.72;99.30;101798.22;6125740;23;20309;-80
2022/07/30 03:39:52;;;;;;;36.85;27.02;;;;;;;13.76;99.78;101804.06;6125195;23;20010;-77
2022/07/30 03:42:19;;;;;;;35.13;23.77;;;;;;;13.56;98.67;101778.47;6125646;23;20324;-79
2022/07/30 03:44:46;;;;;;;29.15;22.90;;;;;;;13.60;98.31;101800.72;6125808;23;20006;-79
2022/07/30 03:47:13;;;;;;;29.15;22.17;;;;;;;13.54;98.08;101809.72;6125859;23;20016;-80
2022/07/30 03:49:38;;;;;;;27.42;21.02;;;;;;;13.40;97.66;101797.56;6126373;23;20021;-79
2022/07/30 03:52:04;;;;;;;30.58;22.63;;;;;;;13.42;97.15;101816.47;6125946;23;20427;-79
2022/07/30 03:54:32;;;;;;;28.30;22.23;;;;;;;13.41;97.70;101819.16;6126030;23;20010;-79
2022/07/30 03:56:59;;;;;;;32.83;23.52;;;;;;;13.40;98.31;101813.13;6099106;23;20006;-79
2022/07/30 03:59:25;;;;;;;35.67;25.75;;;;;;;13.37;98.25;101823.69;6099020;23;20305;-79
2022/07/30 04:01:51;;;;;;;34.53;25.25;;;;;;;13.39;99.24;101816.66;6125622;23;20017;-78
2022/07/30 04:04:16;;;;;;;35.25;25.48;;;;;;;13.31;99.46;101798.09;6125679;23;20061;-80
2022/07/30 04:06:42;;;;;;;36.70;26.60;;;;;;;13.42;100.00;101826.84;6125905;23;20013;-73
2022/07/30 04:09:09;;;;;;;31.58;24.58;;;;;;;13.39;99.48;101824.44;6125737;23;20037;-80
2022/07/30 04:11:34;;;;;;;34.88;25.92;;;;;;;13.38;99.43;101827.97;6125518;23;20018;-79
2022/07/30 04:14:00;;;;;;;34.60;25.60;;;;;;;13.40;99.38;101836.47;6125772;23;20081;-80
2022/07/30 04:16:53;;;;;;;35.97;26.15;;;;;;;13.39;99.64;101840.00;6125504;23;20020;-81
2022/07/30 04:19:24;;;;;;;39.38;26.17;;;;;;;13.33;99.88;101827.38;6125836;23;20081;-79
2022/07/30 04:21:52;;;;;;;36.38;25.75;;;;;;;13.42;100.00;101837.22;6125885;23;20013;-80
2022/07/30 04:24:18;;;;;;;33.95;25.48;;;;;;;13.46;100.00;101843.06;6125813;23;20054;-80
2022/07/30 04:26:45;;;;;;;38.22;25.77;;;;;;;13.48;100.00;101838.63;6125593;23;20002;-80
2022/07/30 04:29:10;;;;;;;37.53;26.98;;;;;;;13.48;100.00;101836.03;6125710;23;20006;-79
2022/07/30 04:31:36;;;;;;;35.42;26.08;;;;;;;13.55;100.00;101842.50;6126052;23;20006;-80
2022/07/30 04:34:02;;;;;;;41.35;28.73;;;;;;;13.62;100.00;101843.00;6125725;23;20002;-78
2022/07/30 04:36:29;;;;;;;37.70;27.08;;;;;;;13.57;100.00;101824.25;6125593;23;20303;-80
2022/07/30 04:38:56;;;;;;;38.78;27.38;;;;;;;13.67;100.00;101847.00;6125483;23;20080;-80
2022/07/30 04:41:21;;;;;;;36.72;26.50;;;;;;;13.65;100.00;101843.63;6125755;23;20013;-79
2022/07/30 04:43:46;;;;;;;35.88;27.13;;;;;;;13.72;100.00;101851.91;6125295;23;20010;-80
2022/07/30 04:46:13;;;;;;;37.78;27.05;;;;;;;13.72;100.00;101842.34;6125749;23;20002;-81
2022/07/30 04:48:38;;;;;;;37.83;27.00;;;;;;;13.81;100.00;101855.72;6125616;23;19998;-81
2022/07/30 04:51:08;;;;;;;38.47;26.38;;;;;;;13.78;100.00;101842.00;6126129;23;20057;-81
2022/07/30 04:53:34;;;;;;;36.08;25.23;;;;;;;13.91;100.00;101860.25;6127507;23;20335;-80
2022/07/30 04:56:01;;;;;;;35.55;26.10;;;;;;;13.97;100.00;101862.50;6127524;23;20008;-77
2022/07/30 04:58:27;;;;;;;39.92;26.35;;;;;;;13.85;100.00;101846.81;6126946;23;20002;-78
2022/07/30 05:00:54;;;;;;;34.40;26.55;;;;;;;13.93;100.00;101845.41;6127813;23;20012;-79
2022/07/30 05:03:22;;;;;;;36.22;25.40;;;;;;;14.07;100.00;101862.78;6127703;23;20016;-74
2022/07/30 05:05:47;;;;;;;34.65;25.77;;;;;;;14.19;100.00;101871.56;6127187;23;20006;-80
2022/07/30 05:08:13;;;;;;;35.20;24.58;;;;;;;14.26;99.95;101875.47;6127643;23;20412;-81
2022/07/30 05:10:39;;;;;;;32.58;24.63;;;;;;;14.26;99.61;101852.91;6127612;23;20006;-80
2022/07/30 05:13:10;;;;;;;30.55;23.05;;;;;;;14.57;98.84;101864.84;6126996;23;20364;-80
2022/07/30 05:15:35;;;;;;;29.23;23.02;;;;;;;14.87;97.54;101864.66;6127325;23;20002;-80
2022/07/30 05:18:00;;;;;;;31.63;20.48;;;;;;;15.12;96.01;101868.25;6126982;23;20022;-80
2022/07/30 05:20:27;;;;;;;28.40;20.80;;;;;;;15.37;94.60;101876.13;6127186;23;20037;-79
2022/07/30 05:22:52;;;;;;;24.50;18.83;;;;;;;15.70;92.89;101870.44;6127365;23;20009;-79
2022/07/30 05:25:17;;;;;;;28.00;19.63;;;;;;;16.12;90.81;101872.78;6127256;23;20057;-77
2022/07/30 05:27:43;;;;;;;25.10;17.70;;;;;;;16.58;88.05;101868.63;6127102;23;20594;-75
2022/07/30 05:30:09;;;;;;;24.10;17.42;;;;;;;17.19;85.30;101861.53;6127611;23;20010;-77
2022/07/30 05:32:34;;;;;;;20.92;15.27;;;;;;;17.71;81.58;101855.06;6126792;23;20006;-76
2022/07/30 05:34:59;;;;;;;24.10;16.25;;;;;;;18.46;79.58;101869.25;6126989;23;20008;-78
2022/07/30 05:37:25;;;;;;;21.60;15.23;;;;;;;19.15;75.71;101870.56;6126992;23;20001;-75
2022/07/30 05:39:50;;;;;;;19.63;14.60;;;;;;;19.45;72.70;101811.34;6126854;23;20010;-76
2022/07/30 05:42:15;;;;;;;19.20;13.75;;;;;;;20.37;70.34;101876.84;6127037;23;19997;-79
2022/07/30 05:44:41;;;;;;;18.02;13.63;;;;;;;21.19;67.59;101878.16;6126803;23;20412;-76
2022/07/30 05:47:06;;;;;;;17.73;13.30;;;;;;;21.69;64.40;101853.44;6126996;23;20002;-75
2022/07/30 05:49:31;;;;;;;18.27;13.10;;;;;;;22.22;62.69;101879.13;6127029;23;20006;-74
2022/07/30 05:51:57;;;;;;;18.85;12.60;;;;;;;22.66;61.58;101879.25;6127321;23;20320;-72
2022/07/30 05:54:22;;;;;;;19.52;12.50;;;;;;;23.46;58.67;101878.28;6126950;23;20033;-77
2022/07/30 05:56:48;;;;;;;15.93;10.85;;;;;;;23.93;57.04;101878.75;6127307;23;20005;-78
2022/07/30 05:59:13;;;;;;;17.95;10.68;;;;;;;24.16;55.05;101878.97;6127214;23;20447;-76
2022/07/30 06:01:39;;;;;;;16.23;10.85;;;;;;;24.25;54.46;101878.03;6126858;23;20353;-78
2022/07/30 06:04:04;;;;;;;14.13;9.98;;;;;;;24.57;53.72;101879.09;6100862;23;20100;-75
2022/07/30 06:06:29;;;;;;;17.13;9.98;;;;;;;25.06;52.28;101889.75;6126893;23;20002;-76
2022/07/30 06:08:55;;;;;;;17.63;10.20;;;;;;;25.16;51.96;101895.69;6126863;23;19998;-78
2022/07/30 06:11:20;;;;;;;17.33;9.77;;;;;;;25.51;50.46;101896.31;6126643;23;20428;-78
2022/07/30 06:13:45;;;;;;;13.48;8.88;;;;;;;25.83;50.31;101892.78;6126358;23;20009;-75
2022/07/30 06:16:11;;;;;;;12.93;8.90;;;;;;;25.91;49.38;101874.22;6126705;23;20335;-74
2022/07/30 06:18:37;;;;;;;13.65;8.77;;;;;;;26.30;48.05;101890.09;6127076;23;20010;-77
2022/07/30 06:21:02;;;;;;;14.32;8.10;;;;;;;26.23;47.99;101892.59;6127133;23;20017;-74
2022/07/30 06:23:27;;;;;;;14.10;8.38;;;;;;;26.50;47.53;101893.16;6126474;23;20332;-75
2022/07/30 06:25:53;;;;;;;12.35;6.60;;;;;;;26.80;46.74;101897.56;6126603;23;20128;-75
2022/07/30 06:28:18;;;;;;;9.45;5.50;;;;;;;27.42;44.86;101891.25;6126134;23;20002;-73
2022/07/30 06:30:47;;;;;;;12.98;6.20;;;;;;;27.43;44.70;101903.50;6126282;23;20029;-74
2022/07/30 06:33:13;;;;;;;8.63;5.18;;;;;;;27.74;44.05;101902.56;6126486;23;20010;-76
2022/07/30 06:35:39;;;;;;;11.52;6.30;;;;;;;27.94;43.54;101895.69;6126731;23;20008;-77
2022/07/30 06:38:04;;;;;;;8.95;4.82;;;;;;;28.20;42.96;101893.31;6126347;23;20081;-75
2022/07/30 06:40:29;;;;;;;11.38;4.75;;;;;;;28.46;41.70;101903.47;6126452;23;20033;-74
2022/07/30 06:42:55;;;;;;;9.85;5.38;;;;;;;28.54;41.78;101905.19;6126564;23;20066;-78
2022/07/30 06:45:20;;;;;;;9.75;5.22;;;;;;;28.93;42.08;101906.59;6126567;23;20096;-76
2022/07/30 06:47:45;;;;;;;10.63;5.40;;;;;;;29.19;41.18;101905.97;6126237;23;20025;-80
2022/07/30 06:50:11;;;;;;;9.00;5.25;;;;;;;29.33;39.72;101889.94;6126540;23;20002;-72
2022/07/30 06:52:37;;;;;;;12.10;5.32;;;;;;;29.41;39.58;101891.63;6126443;23;20052;-72
2022/07/30 06:55:03;;;;;;;7.35;4.13;;;;;;;29.00;40.12;101880.88;6126311;23;20073;-75
2022/07/30 06:57:28;;;;;;;10.55;4.25;;;;;;;28.57;40.26;101900.31;6125917;23;20009;-74
2022/07/30 06:59:54;;;;;;;9.05;4.05;;;;;;;28.51;41.10;101911.69;6126304;23;20002;-75
2022/07/30 07:02:19;;;;;;;8.15;4.05;;;;;;;29.01;40.00;101909.13;6126267;23;20009;-72
2022/07/30 07:04:44;;;;;;;7.72;4.22;;;;;;;29.17;39.56;101905.34;6126497;23;20013;-75
2022/07/30 07:07:10;;;;;;;9.40;3.97;;;;;;;28.33;40.02;101878.59;6126223;23;20010;-75
2022/07/30 07:09:35;;;;;;;8.50;4.43;;;;;;;27.26;42.38;101902.03;6126173;23;20005;-77
2022/07/30 07:12:00;;;;;;;8.75;4.18;;;;;;;25.60;45.37;101892.66;6125590;23;20339;-75
2022/07/30 07:14:26;;;;;;;10.60;4.47;;;;;;;24.27;49.49;101920.09;6125065;23;20006;-71
2022/07/30 07:16:51;;;;;;;10.98;4.40;;;;;;;23.59;52.42;101912.16;6126539;23;20014;-71
2022/07/30 07:19:17;;;;;;;8.63;4.40;;;;;;;23.94;51.68;101884.84;6126342;23;20077;-71
2022/07/30 07:21:42;;;;;;;7.55;3.50;;;;;;;24.69;49.78;101906.88;6125965;23;20376;-72
2022/07/30 07:24:07;;;;;;;9.52;3.78;;;;;;;25.99;47.67;101905.97;6126017;23;20006;-78
2022/07/30 07:26:33;;;;;;;8.90;3.88;;;;;;;26.32;45.80;101906.63;6125833;23;20012;-79
2022/07/30 07:28:59;;;;;;;8.18;3.40;;;;;;;25.76;45.82;101908.50;6126023;23;20002;-79
2022/07/30 07:31:25;;;;;;;9.50;3.42;;;;;;;25.36;47.21;101918.13;6125660;23;20010;-80
2022/07/30 07:33:53;;;;;;;9.10;3.15;;;;;;;24.92;48.93;101919.44;6125746;23;20455;-73
2022/07/30 07:36:21;;;;;;;9.60;3.45;;;;;;;24.76;49.19;101921.06;6125707;23;20328;-73
2022/07/30 07:38:47;;;;;;;8.88;3.80;;;;;;;24.11;51.57;101914.78;6125432;23;20005;-73
2022/07/30 07:41:13;;;;;;;10.65;3.30;;;;;;;23.46;50.35;101918.66;6126028;23;20125;-72
2022/07/30 07:43:39;;;;;;;8.02;3.28;;;;;;;22.73;53.56;101919.81;6125845;23;20009;-69
2022/07/30 07:46:04;;;;;;;6.75;3.15;;;;;;;22.46;53.49;101925.94;6125566;23;20033;-74
2022/07/30 07:48:30;;;;;;;7.32;2.95;;;;;;;22.02;53.95;101917.81;6125815;23;20013;-73
2022/07/30 07:50:55;;;;;;;6.55;3.20;;;;;;;21.90;56.09;101918.97;6125820;23;20006;-73
2022/07/30 07:53:20;;;;;;;8.63;3.20;;;;;;;21.62;54.74;101924.16;6125352;23;20389;-80
2022/07/30 07:55:46;;;;;;;6.85;3.15;;;;;;;21.61;57.26;101922.50;6125831;23;20006;-79
2022/07/30 07:58:12;;;;;;;7.20;3.80;;;;;;;21.74;57.09;101919.59;6125544;23;20032;-74
2022/07/30 08:00:38;;;;;;;6.80;3.30;;;;;;;21.85;56.54;101913.31;6100184;23;20374;-75
2022/07/30 08:03:04;;;;;;;7.28;3.20;;;;;;;21.90;56.77;101913.72;6125920;23;20002;-76
2022/07/30 08:05:29;;;;;;;7.15;2.80;;;;;;;21.76;57.57;101907.13;6126185;23;20439;-75
2022/07/30 08:07:55;;;;;;;8.75;3.53;;;;;;;21.68;56.86;101912.25;6125854;23;20006;-75
2022/07/30 08:10:20;;;;;;;7.93;3.42;;;;;;;21.83;57.28;101912.63;6099672;23;20009;-75
2022/07/30 08:12:46;;;;;;;8.75;3.78;;;;;;;21.88;56.42;101903.34;6125895;23;20038;-78
2022/07/30 08:15:11;;;;;;;9.40;3.55;;;;;;;21.54;56.19;101916.19;6125654;23;20008;-78
2022/07/30 08:17:41;;;;;;;5.95;3.00;;;;;;;21.00;57.26;101877.34;6125535;23;20017;-78
2022/07/30 08:20:08;;;;;;;6.78;3.20;;;;;;;21.21;56.65;101925.28;6125826;23;20365;-80
2022/07/30 08:22:33;;;;;;;8.68;3.15;;;;;;;21.28;57.55;101923.81;6125835;23;20088;-77
2022/07/30 08:24:59;;;;;;;8.20;3.30;;;;;;;21.09;57.55;101922.00;6125892;23;20010;-80
2022/07/30 08:27:25;;;;;;;6.60;3.45;;;;;;;21.25;58.39;101918.00;6125824;23;20006;-77
2022/07/30 08:29:50;;;;;;;7.22;3.22;;;;;;;21.34;58.58;101917.19;6125778;23;20491;-77
2022/07/30 08:32:16;;;;;;;8.75;3.90;;;;;;;21.31;55.51;101909.56;6125351;23;20010;-78
2022/07/30 08:34:41;;;;;;;10.05;3.55;;;;;;;21.28;56.75;101899.34;6125567;23;20013;-80
2022/07/30 08:37:06;;;;;;;10.98;3.80;;;;;;;21.30;56.06;101911.34;6125890;23;20006;-77
2022/07/30 08:39:32;;;;;;;8.57;3.83;;;;;;;21.00;56.57;101911.47;6125975;23;20006;-77
2022/07/30 08:41:58;;;;;;;7.95;3.92;;;;;;;21.06;57.95;101916.19;6125507;23;20377;-77
2022/07/30 08:44:25;;;;;;;8.40;3.80;;;;;;;20.99;58.83;101901.94;6125884;23;20037;-79
2022/07/30 08:46:55;;;;;;;4.97;3.20;;;;;;;21.12;56.93;101910.38;6125345;23;20459;-79
2022/07/30 08:49:22;;;;;;;9.10;3.30;;;;;;;21.33;58.39;101921.56;6125503;23;20009;-79
2022/07/30 08:51:48;;;;;;;11.65;3.50;;;;;;;21.34;58.42;101925.06;6125341;23;20077;-81
2022/07/30 08:54:14;;;;;;;6.60;3.22;;;;;;;21.27;58.49;101908.19;6125670;23;20028;-79
2022/07/30 08:56:40;;;;;;;7.55;3.08;;;;;;;21.29;56.66;101922.00;6125511;23;20061;-79
2022/07/30 08:59:06;;;;;;;7.78;3.40;;;;;;;21.24;56.96;101924.19;6125447;23;20089;-80
2022/07/30 09:01:31;;;;;;;7.70;2.80;;;;;;;21.23;54.96;101927.78;6125610;23;20005;-79
2022/07/30 09:03:56;;;;;;;6.03;2.90;;;;;;;21.26;54.18;101925.75;6125480;23;19998;-78
2022/07/30 09:06:22;;;;;;;7.65;2.72;;;;;;;21.33;53.53;101921.56;6125343;23;20002;-77
2022/07/30 09:08:47;;;;;;;6.60;2.80;;;;;;;21.35;57.92;101914.41;6125158;23;20060;-76
2022/07/30 09:11:13;;;;;;;6.20;2.20;;;;;;;21.43;55.29;101913.69;6125253;23;20002;-80
2022/07/30 09:13:41;;;;;;;5.28;2.55;;;;;;;21.23;52.11;101919.91;6125612;23;20006;-80
2022/07/30 09:16:17;;;;;;;5.35;2.20;;;;;;;21.28;53.62;101925.63;6124444;23;20002;-75
2022/07/30 09:18:43;;;;;;;10.25;3.10;;;;;;;21.06;55.87;101909.16;6125607;23;20010;-81
2022/07/30 09:21:27;;;;;;;5.10;2.47;;;;;;;21.21;53.90;101930.56;6125216;23;20432;-80
2022/07/30 09:24:10;;;;;;;4.45;2.30;;;;;;;21.29;56.32;101920.22;6099086;23;20332;-80
2022/07/30 09:27:05;;;;;;;4.97;2.60;;;;;;;21.48;55.25;101916.72;6125423;23;20030;-78
2022/07/30 09:29:31;;;;;;;6.18;2.42;;;;;;;21.52;54.57;101927.78;6007691;23;20012;-80
2022/07/30 09:31:57;;;;;;;5.20;2.28;;;;;;;21.54;53.79;101934.56;6007565;23;20019;-79
2022/07/30 09:34:28;;;;;;;4.50;2.08;;;;;;;21.60;51.46;101941.06;6007837;23;20008;-79
2022/07/30 09:36:56;;;;;;;7.28;2.20;;;;;;;21.70;53.52;101931.34;6008014;23;20086;-79
2022/07/30 09:39:30;;;;;;;9.85;2.58;;;;;;;21.76;52.04;101933.41;6009357;23;20007;-78
2022/07/30 09:41:56;;;;;;;7.25;2.40;;;;;;;21.72;50.07;101932.03;6009456;23;20114;-77
2022/07/30 09:44:28;;;;;;;6.07;2.65;;;;;;;21.75;53.00;101915.97;6009339;23;20011;-78
2022/07/30 09:46:55;;;;;;;5.35;2.40;;;;;;;21.72;51.26;101926.75;6009188;23;20018;-78
2022/07/30 09:49:27;;;;;;;4.07;2.30;;;;;;;21.79;52.55;101921.78;6009393;23;20064;-77
2022/07/30 09:51:54;;;;;;;5.43;2.35;;;;;;;21.79;50.01;101925.22;6009176;23;20050;-77
2022/07/30 09:54:20;;;;;;;6.70;2.45;;;;;;;21.82;50.64;101932.81;6009540;23;20011;-77
2022/07/30 09:56:46;;;;;;;5.78;2.42;;;;;;;21.85;52.10;101923.84;6009318;23;20441;-75
2022/07/30 09:59:28;;;;;;;4.70;2.13;;;;;;;21.85;51.43;101908.91;6009247;23;20022;-78
2022/07/30 10:01:55;;;;;;;4.10;2.15;;;;;;;21.93;51.92;101901.13;6009019;23;20022;-77
2022/07/30 10:04:23;;;;;;;7.00;2.00;;;;;;;22.07;49.78;101922.69;6009247;23;20350;-77
2022/07/30 10:06:49;;;;;;;6.95;1.90;;;;;;;22.19;51.54;101903.09;6113291;23;20033;-75
2022/07/30 10:09:30;;;;;;;5.65;2.38;;;;;;;22.33;50.25;101913.16;6100114;23;20005;-77
2022/07/30 10:11:58;;;;;;;5.57;2.28;;;;;;;22.33;48.26;101910.50;6126600;23;20442;-76
2022/07/30 10:14:29;;;;;;;4.78;2.00;;;;;;;22.15;49.12;101892.03;6126516;23;20071;-76
2022/07/30 10:16:55;;;;;;;6.30;2.03;;;;;;;22.15;50.55;101912.25;6126279;23;20018;-75
2022/07/30 10:19:21;;;;;;;7.28;2.40;;;;;;;22.13;50.63;101914.22;6126466;23;20136;-74
2022/07/30 10:21:49;;;;;;;5.72;2.30;;;;;;;22.11;49.75;101884.56;6126884;23;20041;-75
2022/07/30 10:24:19;;;;;;;5.85;2.50;;;;;;;22.44;52.50;101898.97;6126549;23;20006;-76
2022/07/30 10:26:54;;;;;;;5.32;2.53;;;;;;;22.52;50.89;101901.69;6126426;23;20092;-77
2022/07/30 10:29:20;;;;;;;9.00;2.30;;;;;;;22.77;51.34;101900.94;6126706;23;20002;-77
2022/07/30 10:31:47;;;;;;;4.35;2.30;;;;;;;22.73;49.25;101886.41;6126169;23;20042;-76
2022/07/30 10:34:15;;;;;;;4.35;2.13;;;;;;;22.88;48.98;101905.16;6125855;23;20025;-79
2022/07/30 10:36:49;;;;;;;5.20;2.13;;;;;;;22.99;50.02;101907.56;6127505;23;20006;-75
2022/07/30 10:39:19;;;;;;;3.78;2.30;;;;;;;22.98;48.01;101902.47;6126402;23;20072;-76
2022/07/30 10:41:50;;;;;;;5.27;2.23;;;;;;;22.97;49.11;101906.91;6126011;23;20017;-76
2022/07/30 10:44:22;;;;;;;;;;;;;;;23.04;49.83;101913.22;6127007;23;20098;-78
2022/07/30 10:47:04;;;;;;;5.05;2.00;;;;;;;22.85;49.06;101902.84;6126552;23;19909;-72
2022/07/30 10:49:30;;;;;;;7.07;2.30;;;;;;;22.82;48.02;101905.75;6126006;23;20002;-76
2022/07/30 10:51:56;;;;;;;5.75;2.13;;;;;;;22.86;47.87;101915.88;6126418;23;20012;-75
2022/07/30 10:54:33;;;;;;;5.95;2.50;;;;;;;22.91;48.27;101912.78;6126040;23;20009;-73
2022/07/30 10:57:10;;;;;;;5.18;2.20;;;;;;;22.72;47.78;101890.03;6126293;23;20016;-74
2022/07/30 10:59:48;;;;;;;5.53;2.15;;;;;;;22.92;48.43;101911.00;6126343;23;20029;-73
2022/07/30 11:02:14;;;;;;;5.45;2.17;;;;;;;22.97;48.55;101908.72;6125832;23;20416;-73
2022/07/30 11:04:39;;;;;;;4.05;2.03;;;;;;;23.04;47.64;101900.06;6125905;23;20431;-74
2022/07/30 11:07:20;;;;;;;5.25;2.00;;;;;;;23.13;48.50;101904.41;6126067;23;20041;-71
2022/07/30 11:09:46;;;;;;;5.80;2.30;;;;;;;23.23;46.47;101893.78;6126199;23;20033;-82
2022/07/30 11:12:12;;;;;;;4.65;2.17;;;;;;;23.17;45.80;101892.56;6126185;23;20006;-78
2022/07/30 11:14:46;;;;;;;5.32;2.15;;;;;;;23.15;47.54;101899.00;6125923;23;20093;-74
2022/07/30 11:17:20;;;;;;;5.85;2.10;;;;;;;23.24;48.14;101910.44;6125729;23;20010;-76
2022/07/30 11:20:01;;;;;;;4.55;2.35;;;;;;;23.29;47.46;101900.25;6126366;23;20010;-73